createdAt,value
2022-08-04T00:00:07.749Z,99631.22
2022-08-04T00:03:14.245Z,99631.31
2022-08-04T00:06:32.677Z,99634.66
2022-08-04T00:10:04.933Z,99627.31
2022-08-04T00:12:57.200Z,99636.53
2022-08-04T00:15:45.583Z,99621.50
2022-08-04T00:18:40.615Z,99627.16
2022-08-04T00:21:29.745Z,99630.44
2022-08-04T00:24:21.008Z,99626.63
2022-08-04T00:27:09.567Z,99646.09
2022-08-04T00:29:59.102Z,99625.22
2022-08-04T00:32:47.659Z,99637.28
2022-08-04T00:35:36.354Z,99629.78
2022-08-04T00:38:25.695Z,99641.66
2022-08-04T00:41:56.368Z,99634.81
2022-08-04T00:46:10.754Z,99634.78
2022-08-04T00:49:26.840Z,99637.72
2022-08-04T00:52:37.497Z,99626.34
2022-08-04T00:56:20.122Z,99647.44
2022-08-04T00:59:29.486Z,99644.44
2022-08-04T01:02:29.522Z,99624.09
2022-08-04T01:06:09.794Z,99641.50
2022-08-04T01:09:25.137Z,99635.38
2022-08-04T01:12:43.685Z,99635.72
2022-08-04T01:15:59.785Z,99643.50
2022-08-04T01:19:07.030Z,99623.28
2022-08-04T01:22:14.109Z,99630.91
2022-08-04T01:25:50.083Z,99636.16
2022-08-04T01:29:10.912Z,99626.03
2022-08-04T01:32:26.606Z,99617.22
2022-08-04T01:35:46.813Z,99625.59
2022-08-04T01:38:44.747Z,99629.09
2022-08-04T01:41:33.123Z,99614.31
2022-08-04T01:44:24.625Z,99614.44
2022-08-04T01:47:12.642Z,99607.88
2022-08-04T01:50:09.607Z,99607.63
2022-08-04T01:52:57.717Z,99597.75
2022-08-04T01:55:54.914Z,99614.28
2022-08-04T01:58:43.444Z,99623.28
2022-08-04T02:01:36.517Z,99609.47
2022-08-04T02:04:24.370Z,99609.25
2022-08-04T02:08:02.022Z,99620.25
2022-08-04T02:11:05.138Z,99616.88
2022-08-04T02:14:42.924Z,99593.63
2022-08-04T02:17:59.884Z,99612.91
2022-08-04T02:21:02.131Z,99610.75
2022-08-04T02:23:55.557Z,99607.72
2022-08-04T02:26:49.963Z,99616.41
2022-08-04T02:29:47.881Z,99601.31
2022-08-04T02:32:41.560Z,99603.00
2022-08-04T02:35:38.742Z,99603.38
2022-08-04T02:38:57.152Z,99611.13
2022-08-04T02:41:47.538Z,99609.63
2022-08-04T02:44:37.654Z,99603.44
2022-08-04T02:48:28.869Z,99607.31
2022-08-04T02:50:37.618Z,99608.16
2022-08-04T02:53:27.079Z,99622.03
2022-08-04T02:56:19.205Z,99615.47
2022-08-04T02:59:12.447Z,99617.31
2022-08-04T03:02:00.196Z,99600.59
2022-08-04T03:05:18.629Z,99588.66
2022-08-04T03:08:56.483Z,99589.00
2022-08-04T03:12:14.358Z,99604.03
2022-08-04T03:15:42.320Z,99602.75
2022-08-04T03:18:51.757Z,99603.03
2022-08-04T03:22:00.941Z,99601.53
2022-08-04T03:25:54.445Z,99605.69
2022-08-04T03:29:37.135Z,99607.78
2022-08-04T03:33:02.240Z,99605.31
2022-08-04T03:36:40.697Z,99611.22
2022-08-04T03:40:12.292Z,99606.25
2022-08-04T03:43:58.917Z,99601.13
2022-08-04T03:46:57.413Z,99594.81
2022-08-04T03:50:17.381Z,99608.34
2022-08-04T03:53:20.194Z,99616.13
2022-08-04T03:56:35.965Z,99615.91
2022-08-04T04:00:14.421Z,99614.63
2022-08-04T04:03:41.479Z,99607.47
2022-08-04T04:06:32.184Z,99624.31
2022-08-04T04:10:06.401Z,99626.06
2022-08-04T04:13:42.423Z,99629.81
2022-08-04T04:17:03.896Z,99630.38
2022-08-04T04:20:52.391Z,99633.69
2022-08-04T04:24:16.859Z,99625.19
2022-08-04T04:27:26.328Z,99618.22
2022-08-04T04:30:23.730Z,99620.22
2022-08-04T04:33:54.036Z,99604.03
2022-08-04T04:37:13.257Z,99624.03
2022-08-04T04:40:28.911Z,99629.91
2022-08-04T04:43:51.982Z,99614.47
2022-08-04T04:47:14.813Z,99627.50
2022-08-04T04:50:36.498Z,99625.97
2022-08-04T04:53:28.810Z,99628.22
2022-08-04T04:56:40.974Z,99629.00
2022-08-04T04:59:34.839Z,99628.78
2022-08-04T05:03:00.152Z,99632.81
2022-08-04T05:06:22.364Z,99632.97
2022-08-04T05:09:56.845Z,99625.06
2022-08-04T05:14:38.770Z,99635.22
2022-08-04T05:16:25.157Z,99635.41
2022-08-04T05:19:45.391Z,99631.66
2022-08-04T05:23:07.242Z,99645.16
2022-08-04T05:26:01.536Z,99625.63
2022-08-04T05:28:55.039Z,99641.03
2022-08-04T05:31:50.812Z,99639.50
2022-08-04T05:34:48.147Z,99638.06
2022-08-04T05:37:38.654Z,99627.28
2022-08-04T05:40:30.010Z,99624.03
2022-08-04T05:43:19.335Z,99613.50
2022-08-04T05:46:08.767Z,99626.53
2022-08-04T05:48:56.737Z,99631.59
2022-08-04T05:51:47.192Z,99630.56
2022-08-04T05:54:36.738Z,99637.66
2022-08-04T05:57:26.215Z,99629.09
2022-08-04T06:00:38.472Z,99633.94
2022-08-04T06:03:24.113Z,99646.31
2022-08-04T06:06:13.219Z,99635.38
2022-08-04T06:09:01.287Z,99643.84
2022-08-04T06:12:00.896Z,99640.28
2022-08-04T06:14:59.614Z,99635.63
2022-08-04T06:18:35.172Z,99643.47
2022-08-04T06:21:16.027Z,99640.31
2022-08-04T06:24:06.946Z,99627.06
2022-08-04T06:26:56.337Z,99633.09
2022-08-04T06:29:51.302Z,99636.63
2022-08-04T06:32:48.475Z,99624.63
2022-08-04T06:35:36.350Z,99637.94
2022-08-04T06:38:27.491Z,99632.97
2022-08-04T06:41:18.950Z,99628.63
2022-08-04T06:44:10.573Z,99639.47
2022-08-04T06:46:59.107Z,99637.91
2022-08-04T06:51:26.689Z,99644.78
2022-08-04T06:53:02.594Z,99644.78
2022-08-04T06:55:52.023Z,99646.41
2022-08-04T06:58:41.078Z,99651.69
2022-08-04T07:01:30.614Z,99648.38
2022-08-04T07:04:19.036Z,99627.72
2022-08-04T07:07:07.015Z,99642.69
2022-08-04T07:09:57.628Z,99638.31
2022-08-04T07:12:46.469Z,99641.25
2022-08-04T07:15:36.112Z,99647.09
2022-08-04T07:18:24.271Z,99647.66
2022-08-04T07:21:23.021Z,99634.66
2022-08-04T07:24:10.842Z,99630.09
2022-08-04T07:27:01.550Z,99638.44
2022-08-04T07:29:52.379Z,99643.88
2022-08-04T07:32:43.137Z,99636.84
2022-08-04T07:36:05.269Z,99633.75
2022-08-04T07:38:48.409Z,99634.56
2022-08-04T07:41:48.724Z,99641.53
2022-08-04T07:44:37.553Z,99632.91
2022-08-04T07:47:28.772Z,99629.63
2022-08-04T07:50:21.689Z,99632.75
2022-08-04T07:53:53.900Z,99644.16
2022-08-04T07:56:35.741Z,99637.00
2022-08-04T07:59:33.312Z,99635.56
2022-08-04T08:02:30.256Z,99638.13
2022-08-04T08:05:24.411Z,99633.38
2022-08-04T08:08:14.811Z,99636.13
2022-08-04T08:11:09.908Z,99631.38
2022-08-04T08:14:00.819Z,99612.03
2022-08-04T08:16:49.609Z,99623.50
2022-08-04T08:19:40.422Z,99626.91
2022-08-04T08:22:34.027Z,99634.56
2022-08-04T08:25:27.216Z,99628.16
2022-08-04T08:28:16.690Z,99618.41
2022-08-04T08:31:07.508Z,99621.97
2022-08-04T08:34:01.298Z,99613.63
2022-08-04T08:37:23.135Z,99604.78
2022-08-04T08:40:52.696Z,99611.53
2022-08-04T08:44:07.018Z,99609.19
2022-08-04T08:48:05.279Z,99602.28
2022-08-04T08:51:39.072Z,99607.63
2022-08-04T08:55:15.151Z,99606.63
2022-08-04T08:58:35.881Z,99618.25
2022-08-04T09:02:16.859Z,99609.38
2022-08-04T09:06:04.868Z,99606.94
2022-08-04T09:09:25.203Z,99583.88
2022-08-04T09:12:36.290Z,99600.22
2022-08-04T09:15:39.781Z,99590.69
2022-08-04T09:19:17.644Z,99580.75
2022-08-04T09:23:01.794Z,99574.34
2022-08-04T09:26:28.608Z,99600.06
2022-08-04T09:29:28.804Z,99602.38
2022-08-04T09:32:38.234Z,99599.06
2022-08-04T09:35:48.251Z,99596.25
2022-08-04T09:39:02.824Z,99592.38
2022-08-04T09:42:43.968Z,99601.94
2022-08-04T09:45:48.864Z,99595.47
2022-08-04T09:48:52.636Z,99592.56
2022-08-04T09:52:10.218Z,99582.97
2022-08-04T09:55:32.249Z,99582.94
2022-08-04T09:58:41.226Z,99583.66
2022-08-04T10:01:35.765Z,99587.13
2022-08-04T10:04:36.775Z,99575.50
2022-08-04T10:08:16.058Z,99567.25
2022-08-04T10:11:55.881Z,99553.53
2022-08-04T10:15:16.747Z,99558.69
2022-08-04T10:18:21.661Z,99560.91
2022-08-04T10:21:50.962Z,99556.41
2022-08-04T10:26:07.171Z,99563.84
2022-08-04T10:29:14.575Z,99540.22
2022-08-04T10:32:29.495Z,99548.22
2022-08-04T10:35:33.376Z,99544.69
2022-08-04T10:38:46.619Z,99547.50
2022-08-04T10:42:10.726Z,99532.16
2022-08-04T10:45:19.527Z,99527.75
2022-08-04T10:48:34.756Z,99531.41
2022-08-04T10:51:57.698Z,99534.41
2022-08-04T10:56:06.529Z,99512.78
2022-08-04T10:58:58.659Z,99516.97
2022-08-04T11:02:03.315Z,99512.25
2022-08-04T11:05:22.099Z,99513.75
2022-08-04T11:08:37.043Z,99514.00
2022-08-04T11:12:00.506Z,99510.28
2022-08-04T11:15:17.712Z,99504.34
2022-08-04T11:18:50.228Z,99507.59
2022-08-04T11:21:47.884Z,99512.81
2022-08-04T11:25:01.105Z,99501.56
2022-08-04T11:28:18.684Z,99507.88
2022-08-04T11:31:43.757Z,99508.16
2022-08-04T11:34:37.379Z,99506.09
2022-08-04T11:38:01.480Z,99520.53
2022-08-04T11:41:02.627Z,99525.03
2022-08-04T11:44:02.418Z,99494.13
2022-08-04T11:47:03.354Z,99506.53
2022-08-04T11:50:21.245Z,99501.06
2022-08-04T11:53:22.894Z,99506.50
2022-08-04T11:56:35.981Z,99508.34
2022-08-04T11:59:26.627Z,99509.66
2022-08-04T12:02:51.054Z,99508.63
2022-08-04T12:06:09.632Z,99506.31
2022-08-04T12:09:15.889Z,99495.94
2022-08-04T12:12:20.871Z,99484.72
2022-08-04T12:15:25.789Z,99469.56
2022-08-04T12:18:41.454Z,99490.34
2022-08-04T12:21:53.071Z,99497.22
2022-08-04T12:25:05.948Z,99489.75
2022-08-04T12:28:46.392Z,99489.63
2022-08-04T12:31:53.158Z,99487.56
2022-08-04T12:35:08.673Z,99476.47
2022-08-04T12:38:07.815Z,99471.47
2022-08-04T12:41:02.974Z,99462.34
2022-08-04T12:43:55.785Z,99465.78
2022-08-04T12:46:49.355Z,99463.84
2022-08-04T12:49:56.242Z,99468.72
2022-08-04T12:53:03.490Z,99473.00
2022-08-04T12:56:02.178Z,99456.03
2022-08-04T12:59:02.119Z,99453.22
2022-08-04T13:02:10.206Z,99463.69
2022-08-04T13:05:05.977Z,99464.63
2022-08-04T13:07:54.877Z,99460.75
2022-08-04T13:10:51.331Z,99466.00
2022-08-04T13:13:40.908Z,99473.06
2022-08-04T13:16:33.625Z,99457.16
2022-08-04T13:19:21.999Z,99451.19
2022-08-04T13:22:16.220Z,99448.22
2022-08-04T13:25:18.139Z,99451.91
2022-08-04T13:28:30.196Z,99436.09
2022-08-04T13:31:35.704Z,99433.69
2022-08-04T13:34:29.410Z,99410.94
2022-08-04T13:37:34.774Z,99425.78
2022-08-04T13:40:30.939Z,99421.69
2022-08-04T13:44:16.727Z,99419.66
2022-08-04T13:46:59.154Z,99415.50
2022-08-04T13:50:32.293Z,99406.59
2022-08-04T13:53:31.172Z,99399.78
2022-08-04T13:56:26.292Z,99398.59
2022-08-04T13:59:21.857Z,99394.00
2022-08-04T14:02:36.560Z,99362.94
2022-08-04T14:05:33.888Z,99379.91
2022-08-04T14:08:31.493Z,99373.38
2022-08-04T14:12:06.700Z,99390.34
2022-08-04T14:14:52.294Z,99383.72
2022-08-04T14:17:45.694Z,99366.41
2022-08-04T14:20:38.305Z,99377.06
2022-08-04T14:23:47.010Z,99375.28
2022-08-04T14:26:41.439Z,99364.13
2022-08-04T14:29:43.167Z,99352.13
2022-08-04T14:32:35.515Z,99361.44
2022-08-04T14:35:49.990Z,99362.53
2022-08-04T14:38:47.671Z,99370.84
2022-08-04T14:41:48.201Z,99369.56
2022-08-04T14:45:01.463Z,99355.56
2022-08-04T14:47:53.310Z,99357.81
2022-08-04T14:50:51.044Z,99360.81
2022-08-04T14:53:52.525Z,99365.38
2022-08-04T14:56:57.839Z,99362.63
2022-08-04T14:59:59.421Z,99347.34
2022-08-04T15:02:52.713Z,99358.69
2022-08-04T15:06:03.130Z,99363.91
2022-08-04T15:09:00.026Z,99362.13
2022-08-04T15:11:53.012Z,99343.56
2022-08-04T15:14:44.951Z,99338.84
2022-08-04T15:17:37.799Z,99327.13
2022-08-04T15:20:26.187Z,99359.59
2022-08-04T15:23:21.778Z,99350.09
2022-08-04T15:26:36.861Z,99354.34
2022-08-04T15:30:00.528Z,99349.75
2022-08-04T15:32:54.954Z,99349.75
2022-08-04T15:35:55.690Z,99353.28
2022-08-04T15:39:36.096Z,99353.50
2022-08-04T15:42:50.485Z,99317.31
2022-08-04T15:46:42.760Z,99337.88
2022-08-04T15:49:23.205Z,99336.06
2022-08-04T15:52:23.016Z,99330.78
2022-08-04T15:55:36.384Z,99339.69
2022-08-04T15:58:27.485Z,99332.59
2022-08-04T16:01:19.537Z,99325.22
2022-08-04T16:04:27.048Z,99321.59
2022-08-04T16:07:17.049Z,99323.19
2022-08-04T16:10:47.010Z,99319.50
2022-08-04T16:13:42.503Z,99302.44
2022-08-04T16:16:53.092Z,99319.88
2022-08-04T16:20:08.327Z,99315.81
2022-08-04T16:23:13.571Z,99293.44
2022-08-04T16:26:05.027Z,99302.97
2022-08-04T16:28:54.991Z,99308.53
2022-08-04T16:32:11.619Z,99293.25
2022-08-04T16:35:05.248Z,99309.94
2022-08-04T16:38:14.701Z,99299.00
2022-08-04T16:41:09.467Z,99291.00
2022-08-04T16:44:52.245Z,99312.34
2022-08-04T16:47:49.346Z,99303.72
2022-08-04T16:51:09.487Z,99297.81
2022-08-04T16:54:11.118Z,99300.25
2022-08-04T16:57:15.737Z,99293.28
2022-08-04T17:00:08.718Z,99290.22
2022-08-04T17:02:59.263Z,99298.78
2022-08-04T17:05:51.730Z,99296.53
2022-08-04T17:08:43.350Z,99288.66
2022-08-04T17:11:38.225Z,99297.19
2022-08-04T17:14:31.267Z,99296.84
2022-08-04T17:17:59.150Z,99293.09
2022-08-04T17:21:01.326Z,99291.59
2022-08-04T17:24:12.619Z,99291.84
2022-08-04T17:28:09.262Z,99290.75
2022-08-04T17:30:30.232Z,99282.75
2022-08-04T17:33:19.879Z,99268.44
2022-08-04T17:36:14.714Z,99282.53
2022-08-04T17:39:17.069Z,99293.28
2022-08-04T17:42:13.367Z,99285.47
2022-08-04T17:48:28.183Z,99277.44
2022-08-04T17:51:20.002Z,99291.13
2022-08-04T17:54:29.764Z,99300.06
2022-08-04T17:57:25.457Z,99292.38
2022-08-04T18:00:19.550Z,99300.44
2022-08-04T18:03:10.216Z,99284.13
2022-08-04T18:06:15.071Z,99298.59
2022-08-04T18:09:22.171Z,99298.72
2022-08-04T18:12:25.925Z,99306.00
2022-08-04T18:15:29.985Z,99296.69
2022-08-04T18:18:35.245Z,99311.38
2022-08-04T18:21:28.958Z,99305.53
2022-08-04T18:24:16.801Z,99310.19
2022-08-04T18:27:09.166Z,99311.22
2022-08-04T18:30:31.188Z,99327.22
2022-08-04T18:33:40.315Z,99318.69
2022-08-04T18:36:29.836Z,99316.59
2022-08-04T18:40:09.589Z,99325.69
2022-08-04T18:42:37.531Z,99313.31
2022-08-04T18:45:34.427Z,99325.75
2022-08-04T18:48:36.034Z,99329.50
2022-08-04T18:51:30.792Z,99334.56
2022-08-04T18:54:24.604Z,99335.56
2022-08-04T18:57:32.039Z,99331.66
2022-08-04T19:00:26.260Z,99346.13
2022-08-04T19:03:21.995Z,99336.16
2022-08-04T19:06:11.105Z,99339.63
2022-08-04T19:09:01.440Z,99334.56
2022-08-04T19:11:55.633Z,99347.16
2022-08-04T19:14:49.576Z,99346.00
2022-08-04T19:17:52.492Z,99350.47
2022-08-04T19:20:48.999Z,99352.78
2022-08-04T19:24:30.337Z,99342.19
2022-08-04T19:26:52.671Z,99351.47
2022-08-04T19:29:43.066Z,99365.03
2022-08-04T19:32:35.844Z,99368.66
2022-08-04T19:35:28.671Z,99375.16
2022-08-04T19:38:18.883Z,99383.03
2022-08-04T19:44:19.664Z,99386.84
2022-08-04T19:48:21.408Z,99378.88
2022-08-04T19:50:24.412Z,99391.09
2022-08-04T19:53:18.817Z,99389.72
2022-08-04T19:56:07.890Z,99377.38
2022-08-04T19:58:55.730Z,99389.72
2022-08-04T20:01:45.517Z,99398.63
2022-08-04T20:04:36.963Z,99377.25
2022-08-04T20:07:27.360Z,99373.34
2022-08-04T20:10:17.035Z,99399.38
2022-08-04T20:13:05.636Z,99398.31
2022-08-04T20:16:01.487Z,99391.69
2022-08-04T20:18:55.510Z,99398.19
2022-08-04T20:21:55.671Z,99408.69
2022-08-04T20:24:59.945Z,99392.53
2022-08-04T20:28:00.258Z,99406.84
2022-08-04T20:30:51.226Z,99409.41
2022-08-04T20:33:41.394Z,99405.94
2022-08-04T20:36:37.180Z,99404.41
2022-08-04T20:39:25.170Z,99402.63
2022-08-04T20:42:14.489Z,99410.28
2022-08-04T20:45:02.924Z,99418.25
2022-08-04T20:47:54.089Z,99423.34
2022-08-04T20:50:47.789Z,99416.69
2022-08-04T20:53:52.993Z,99423.28
2022-08-04T20:56:41.701Z,99428.19
2022-08-04T20:59:38.843Z,99419.41
2022-08-04T21:02:27.354Z,99416.38
2022-08-04T21:05:15.238Z,99423.00
2022-08-04T21:08:03.070Z,99402.34
2022-08-04T21:10:50.895Z,99426.13
2022-08-04T21:13:52.121Z,99431.53
2022-08-04T21:16:55.468Z,99430.03
2022-08-04T21:19:44.093Z,99430.63
2022-08-04T21:22:37.330Z,99411.94
2022-08-04T21:25:25.607Z,99433.00
2022-08-04T21:28:20.417Z,99430.41
2022-08-04T21:31:11.091Z,99441.94
2022-08-04T21:34:10.376Z,99443.13
2022-08-04T21:37:01.406Z,99425.00
2022-08-04T21:40:02.788Z,99442.22
2022-08-04T21:42:59.419Z,99427.94
2022-08-04T21:45:50.923Z,99443.91
2022-08-04T21:48:44.803Z,99434.66
2022-08-04T21:52:00.169Z,99443.81
2022-08-04T21:54:46.528Z,99441.63
2022-08-04T21:57:44.567Z,99419.69
2022-08-04T22:00:34.555Z,99439.25
2022-08-04T22:03:39.519Z,99444.22
2022-08-04T22:06:33.041Z,99435.25
2022-08-04T22:09:23.481Z,99424.19
2022-08-04T22:12:12.404Z,99437.84
2022-08-04T22:15:23.005Z,99446.63
2022-08-04T22:18:12.309Z,99447.47
2022-08-04T22:21:00.175Z,99455.50
2022-08-04T22:23:50.549Z,99440.22
2022-08-04T22:26:38.346Z,99437.25
2022-08-04T22:29:34.195Z,99438.34
2022-08-04T22:32:27.278Z,99429.34
2022-08-04T22:35:42.771Z,99440.16
2022-08-04T22:38:41.801Z,99427.34
2022-08-04T22:41:34.428Z,99438.75
2022-08-04T22:44:39.060Z,99446.91
2022-08-04T22:47:27.426Z,99428.94
2022-08-04T22:50:27.689Z,99452.88
2022-08-04T22:53:18.370Z,99445.50
2022-08-04T22:56:09.602Z,99446.25
2022-08-04T22:58:58.762Z,99435.50
2022-08-04T23:02:00.467Z,99444.63
2022-08-04T23:04:54.042Z,99442.94
2022-08-04T23:07:49.492Z,99441.25
2022-08-04T23:10:44.602Z,99431.50
2022-08-04T23:13:32.452Z,99439.72
2022-08-04T23:16:25.073Z,99450.66
2022-08-04T23:19:19.521Z,99457.91
2022-08-04T23:22:16.045Z,99439.38
2022-08-04T23:25:07.524Z,99457.34
2022-08-04T23:28:04.815Z,99458.69
2022-08-04T23:30:55.840Z,99465.88
2022-08-04T23:33:51.164Z,99471.56
2022-08-04T23:36:40.622Z,99464.22
2022-08-04T23:40:03.959Z,99466.13
2022-08-04T23:42:36.214Z,99479.97
2022-08-04T23:46:03.648Z,99474.84
2022-08-04T23:48:32.150Z,99481.13
2022-08-04T23:51:20.720Z,99484.91
2022-08-04T23:54:08.519Z,99486.09
2022-08-04T23:56:59.107Z,99491.81
2022-08-04T23:59:54.263Z,99482.53
